createdAt,value
2022-12-19T00:00:31.840Z,91.67
2022-12-19T00:03:00.351Z,91.37
2022-12-19T00:05:28.824Z,91.46
2022-12-19T00:07:57.262Z,91.30
2022-12-19T00:10:28.638Z,91.94
2022-12-19T00:12:57.035Z,91.68
2022-12-19T00:15:25.360Z,92.01
2022-12-19T00:17:53.639Z,91.93
2022-12-19T00:20:22.055Z,91.87
2022-12-19T00:22:51.040Z,91.81
2022-12-19T00:25:22.186Z,91.95
2022-12-19T00:27:53.426Z,91.62
2022-12-19T00:30:21.852Z,91.32
2022-12-19T00:32:50.717Z,91.26
2022-12-19T00:35:19.151Z,91.58
2022-12-19T00:37:49.577Z,91.29
2022-12-19T00:40:18.805Z,91.28
2022-12-19T00:42:53.200Z,91.14
2022-12-19T00:45:23.702Z,91.71
2022-12-19T00:47:52.239Z,91.50
2022-12-19T00:50:22.378Z,91.44
2022-12-19T00:52:50.767Z,91.11
2022-12-19T00:55:19.529Z,91.58
2022-12-19T00:57:48.600Z,91.33
2022-12-19T01:00:18.747Z,91.50
2022-12-19T01:02:48.687Z,91.29
2022-12-19T01:05:17.375Z,91.70
2022-12-19T01:07:45.791Z,91.17
2022-12-19T01:10:14.210Z,91.24
2022-12-19T01:12:47.717Z,91.15
2022-12-19T01:15:20.154Z,90.41
2022-12-19T01:17:50.706Z,90.83
2022-12-19T01:20:29.487Z,90.87
2022-12-19T01:23:00.089Z,90.75
2022-12-19T01:25:29.385Z,91.00
2022-12-19T01:27:58.430Z,90.93
2022-12-19T01:30:30.151Z,91.48
2022-12-19T01:33:01.996Z,90.93
2022-12-19T01:35:30.452Z,90.80
2022-12-19T01:38:06.107Z,90.73
2022-12-19T01:40:36.974Z,90.69
2022-12-19T01:43:05.763Z,91.17
2022-12-19T01:45:37.464Z,91.56
2022-12-19T01:48:20.476Z,91.00
2022-12-19T01:51:01.945Z,90.99
2022-12-19T01:53:49.246Z,92.87
2022-12-19T01:56:21.637Z,93.82
2022-12-19T01:58:58.961Z,94.66
2022-12-19T02:01:47.040Z,96.03
2022-12-19T02:04:21.936Z,96.05
2022-12-19T02:06:51.298Z,95.74
2022-12-19T02:09:28.924Z,96.40
2022-12-19T02:11:57.388Z,98.54
2022-12-19T02:14:25.932Z,98.04
2022-12-19T02:17:05.025Z,99.67
2022-12-19T02:20:20.875Z,98.18
2022-12-19T02:23:11.260Z,98.09
2022-12-19T02:26:07.935Z,98.67
2022-12-19T02:29:00.917Z,98.10
2022-12-19T02:31:32.708Z,98.71
2022-12-19T02:34:12.336Z,99.32
2022-12-19T02:36:53.092Z,99.21
2022-12-19T02:39:33.781Z,99.77
2022-12-19T02:42:07.162Z,99.76
2022-12-19T02:44:41.581Z,99.54
2022-12-19T02:47:12.519Z,100.00
2022-12-19T02:49:40.964Z,100.00
2022-12-19T02:52:14.326Z,99.99
2022-12-19T02:54:45.208Z,99.92
2022-12-19T02:57:25.003Z,99.40
2022-12-19T03:00:07.053Z,99.89
2022-12-19T03:02:56.110Z,99.57
2022-12-19T03:05:37.331Z,100.00
2022-12-19T03:08:14.016Z,100.00
2022-12-19T03:10:46.733Z,100.00
2022-12-19T03:13:24.503Z,100.00
2022-12-19T03:15:53.498Z,100.00
2022-12-19T03:18:24.029Z,100.00
2022-12-19T03:21:01.405Z,100.00
2022-12-19T03:23:30.894Z,100.00
2022-12-19T03:26:05.545Z,100.00
2022-12-19T03:28:45.358Z,100.00
2022-12-19T03:31:15.750Z,100.00
2022-12-19T03:33:48.782Z,100.00
2022-12-19T03:36:22.713Z,100.00
2022-12-19T03:38:51.513Z,100.00
2022-12-19T03:41:42.155Z,100.00
2022-12-19T03:44:11.784Z,100.00
2022-12-19T03:46:46.105Z,100.00
2022-12-19T03:49:16.312Z,100.00
2022-12-19T03:51:59.084Z,100.00
2022-12-19T03:54:31.236Z,100.00
2022-12-19T03:57:07.596Z,100.00
2022-12-19T03:59:42.134Z,100.00
2022-12-19T04:02:13.143Z,100.00
2022-12-19T04:04:50.893Z,100.00
2022-12-19T04:07:20.835Z,100.00
2022-12-19T04:09:50.589Z,100.00
2022-12-19T04:12:23.040Z,100.00
2022-12-19T04:14:52.491Z,100.00
2022-12-19T04:17:30.236Z,100.00
2022-12-19T04:20:04.857Z,100.00
2022-12-19T04:22:38.231Z,100.00
2022-12-19T04:25:12.708Z,100.00
2022-12-19T04:27:47.959Z,100.00
2022-12-19T04:30:19.270Z,100.00
2022-12-19T04:32:48.596Z,100.00
2022-12-19T04:35:18.799Z,100.00
2022-12-19T04:37:47.249Z,100.00
2022-12-19T04:40:15.996Z,100.00
2022-12-19T04:42:44.441Z,100.00
2022-12-19T04:45:14.108Z,100.00
2022-12-19T04:47:45.150Z,100.00
2022-12-19T04:50:13.703Z,100.00
2022-12-19T04:52:43.401Z,100.00
2022-12-19T04:55:11.910Z,100.00
2022-12-19T04:57:40.324Z,100.00
2022-12-19T05:00:11.235Z,100.00
2022-12-19T05:02:40.158Z,100.00
2022-12-19T05:05:09.985Z,100.00
2022-12-19T05:07:38.476Z,100.00
2022-12-19T05:10:09.643Z,100.00
2022-12-19T05:12:38.140Z,100.00
2022-12-19T05:15:08.156Z,100.00
2022-12-19T05:17:36.658Z,100.00
2022-12-19T05:20:07.249Z,100.00
2022-12-19T05:22:35.665Z,100.00
2022-12-19T05:25:04.111Z,100.00
2022-12-19T05:27:33.869Z,100.00
2022-12-19T05:30:02.402Z,100.00
2022-12-19T05:32:32.394Z,100.00
2022-12-19T05:35:00.885Z,100.00
2022-12-19T05:37:29.318Z,100.00
2022-12-19T05:39:57.660Z,100.00
2022-12-19T05:42:27.266Z,100.00
2022-12-19T05:44:56.908Z,100.00
2022-12-19T05:47:25.392Z,100.00
2022-12-19T05:49:53.745Z,100.00
2022-12-19T05:52:25.294Z,100.00
2022-12-19T05:54:53.927Z,100.00
2022-12-19T05:57:22.324Z,100.00
2022-12-19T05:59:50.701Z,100.00
2022-12-19T06:02:21.529Z,100.00
2022-12-19T06:04:50.120Z,100.00
2022-12-19T06:07:21.071Z,100.00
2022-12-19T06:09:49.879Z,100.00
2022-12-19T06:12:18.186Z,100.00
2022-12-19T06:14:46.599Z,99.35
2022-12-19T06:17:15.040Z,97.51
2022-12-19T06:19:46.330Z,97.46
2022-12-19T06:22:14.659Z,98.28
2022-12-19T06:24:43.125Z,98.68
2022-12-19T06:27:11.591Z,98.97
2022-12-19T06:29:39.949Z,99.75
2022-12-19T06:32:08.992Z,100.00
2022-12-19T06:35:03.331Z,100.00
2022-12-19T06:37:27.159Z,100.00
2022-12-19T06:39:55.551Z,100.00
2022-12-19T06:42:22.929Z,100.00
2022-12-19T06:44:52.373Z,100.00
2022-12-19T06:47:22.285Z,100.00
2022-12-19T06:49:51.084Z,100.00
2022-12-19T06:52:19.664Z,100.00
2022-12-19T06:54:49.452Z,100.00
2022-12-19T06:57:17.843Z,100.00
2022-12-19T06:59:46.183Z,100.00
2022-12-19T07:02:27.520Z,100.00
2022-12-19T07:05:01.586Z,100.00
2022-12-19T07:07:30.745Z,100.00
2022-12-19T07:10:00.776Z,100.00
2022-12-19T07:12:29.155Z,100.00
2022-12-19T07:14:57.589Z,100.00
2022-12-19T07:17:27.277Z,100.00
2022-12-19T07:19:57.704Z,100.00
2022-12-19T07:22:32.653Z,100.00
2022-12-19T07:25:04.302Z,100.00
2022-12-19T07:27:35.916Z,100.00
2022-12-19T07:30:07.959Z,100.00
2022-12-19T07:32:36.996Z,100.00
2022-12-19T07:35:06.305Z,100.00
2022-12-19T07:37:34.661Z,100.00
2022-12-19T07:40:05.374Z,100.00
2022-12-19T07:42:34.191Z,100.00
2022-12-19T07:45:02.519Z,100.00
2022-12-19T07:47:30.949Z,100.00
2022-12-19T07:49:59.325Z,100.00
2022-12-19T07:52:27.796Z,100.00
2022-12-19T07:54:56.437Z,100.00
2022-12-19T07:57:26.308Z,100.00
2022-12-19T07:59:54.631Z,100.00
2022-12-19T08:02:23.148Z,100.00
2022-12-19T08:04:52.019Z,100.00
2022-12-19T08:07:20.593Z,100.00
2022-12-19T08:09:48.962Z,100.00
2022-12-19T08:12:17.769Z,100.00
2022-12-19T08:14:47.503Z,100.00
2022-12-19T08:17:20.694Z,100.00
2022-12-19T08:19:49.265Z,100.00
2022-12-19T08:22:17.563Z,100.00
2022-12-19T08:24:45.913Z,100.00
2022-12-19T08:27:14.271Z,100.00
2022-12-19T08:29:42.619Z,100.00
2022-12-19T08:32:17.096Z,100.00
2022-12-19T08:34:49.382Z,100.00
2022-12-19T08:37:17.805Z,100.00
2022-12-19T08:39:46.270Z,100.00
2022-12-19T08:42:14.946Z,100.00
2022-12-19T08:44:43.401Z,100.00
2022-12-19T08:47:13.122Z,100.00
2022-12-19T08:49:41.574Z,100.00
2022-12-19T08:52:09.932Z,100.00
2022-12-19T08:54:38.502Z,100.00
2022-12-19T08:57:06.843Z,100.00
2022-12-19T08:59:35.197Z,100.00
2022-12-19T09:02:06.268Z,100.00
2022-12-19T09:05:58.582Z,100.00
2022-12-19T09:07:25.351Z,100.00
2022-12-19T09:09:54.171Z,100.00
2022-12-19T09:12:22.546Z,100.00
2022-12-19T09:14:51.674Z,100.00
2022-12-19T09:17:20.818Z,100.00
2022-12-19T09:19:50.624Z,100.00
2022-12-19T09:22:19.024Z,100.00
2022-12-19T09:24:47.524Z,100.00
2022-12-19T09:27:15.951Z,100.00
2022-12-19T09:29:44.886Z,100.00
2022-12-19T09:32:13.336Z,100.00
2022-12-19T09:34:41.778Z,100.00
2022-12-19T09:37:17.252Z,100.00
2022-12-19T09:39:47.250Z,100.00
2022-12-19T09:42:53.534Z,100.00
2022-12-19T09:45:42.445Z,100.00
2022-12-19T09:48:24.206Z,100.00
2022-12-19T09:51:10.501Z,100.00
2022-12-19T09:53:57.445Z,100.00
2022-12-19T09:56:34.061Z,100.00
2022-12-19T09:59:22.522Z,100.00
2022-12-19T10:01:58.153Z,100.00
2022-12-19T10:04:28.863Z,100.00
2022-12-19T10:07:21.232Z,100.00
2022-12-19T10:11:25.102Z,100.00
2022-12-19T10:12:58.583Z,100.00
2022-12-19T10:15:41.533Z,100.00
2022-12-19T10:18:28.203Z,100.00
2022-12-19T10:21:07.614Z,100.00
2022-12-19T10:24:13.726Z,100.00
2022-12-19T10:26:49.571Z,100.00
2022-12-19T10:30:02.438Z,100.00
2022-12-19T10:32:37.871Z,100.00
2022-12-19T10:35:15.936Z,100.00
2022-12-19T10:37:51.518Z,100.00
2022-12-19T10:40:29.967Z,100.00
2022-12-19T10:43:11.136Z,100.00
2022-12-19T10:45:47.486Z,100.00
2022-12-19T10:48:21.273Z,100.00
2022-12-19T10:50:58.829Z,100.00
2022-12-19T10:53:34.638Z,100.00
2022-12-19T10:56:13.715Z,100.00
2022-12-19T10:58:45.765Z,100.00
2022-12-19T11:01:17.021Z,100.00
2022-12-19T11:03:50.079Z,100.00
2022-12-19T11:06:45.213Z,100.00
2022-12-19T11:09:29.000Z,100.00
2022-12-19T11:15:53.715Z,100.00
2022-12-19T11:18:48.314Z,100.00
2022-12-19T11:25:28.495Z,100.00
2022-12-19T11:29:30.011Z,100.00
2022-12-19T11:29:37.562Z,100.00
2022-12-19T11:30:45.891Z,100.00
2022-12-19T11:31:50.864Z,100.00
2022-12-19T11:32:41.139Z,100.00
2022-12-19T11:35:22.763Z,100.00
2022-12-19T11:37:57.900Z,100.00
2022-12-19T11:40:43.021Z,100.00
2022-12-19T11:43:43.299Z,100.00
2022-12-19T11:46:22.267Z,100.00
2022-12-19T11:48:59.754Z,100.00
2022-12-19T11:51:36.209Z,100.00
2022-12-19T11:54:15.029Z,100.00
2022-12-19T11:56:43.554Z,100.00
2022-12-19T11:59:20.884Z,100.00
2022-12-19T12:02:14.411Z,100.00
2022-12-19T12:05:34.193Z,100.00
2022-12-19T12:09:32.894Z,100.00
2022-12-19T12:18:07.463Z,100.00
2022-12-19T12:22:52.534Z,100.00
2022-12-19T12:31:00.748Z,100.00
2022-12-19T12:31:09.073Z,100.00
2022-12-19T12:31:14.998Z,100.00
2022-12-19T12:32:03.522Z,100.00
2022-12-19T12:32:05.400Z,100.00
2022-12-19T12:35:54.549Z,100.00
2022-12-19T12:39:06.569Z,100.00
2022-12-19T12:42:04.810Z,100.00
2022-12-19T12:44:42.908Z,100.00
2022-12-19T12:47:20.565Z,100.00
2022-12-19T12:49:52.787Z,100.00
2022-12-19T12:52:30.063Z,100.00
2022-12-19T12:54:59.247Z,100.00
2022-12-19T12:57:38.356Z,100.00
2022-12-19T13:00:24.309Z,100.00
2022-12-19T13:02:58.242Z,100.00
2022-12-19T13:05:54.033Z,100.00
2022-12-19T13:08:47.482Z,100.00
2022-12-19T13:11:54.249Z,100.00
2022-12-19T13:14:49.287Z,100.00
2022-12-19T13:17:28.279Z,100.00
2022-12-19T13:19:59.609Z,100.00
2022-12-19T13:22:42.228Z,100.00
2022-12-19T13:25:52.335Z,100.00
2022-12-19T13:28:43.430Z,100.00
2022-12-19T13:31:29.545Z,100.00
2022-12-19T13:34:19.868Z,100.00
2022-12-19T13:39:49.939Z,100.00
2022-12-19T13:40:09.170Z,100.00
2022-12-19T13:43:10.628Z,100.00
2022-12-19T13:45:42.945Z,100.00
2022-12-19T13:48:17.872Z,100.00
2022-12-19T13:50:49.685Z,100.00
2022-12-19T13:53:20.432Z,100.00
2022-12-19T13:55:49.896Z,100.00
2022-12-19T13:58:29.181Z,100.00
2022-12-19T14:01:03.658Z,100.00
2022-12-19T14:03:39.041Z,100.00
2022-12-19T14:06:16.239Z,100.00
2022-12-19T14:09:25.146Z,100.00
2022-12-19T14:13:45.872Z,100.00
2022-12-19T14:15:12.220Z,100.00
2022-12-19T14:17:38.955Z,100.00
2022-12-19T14:22:02.128Z,100.00
2022-12-19T14:23:08.187Z,100.00
2022-12-19T14:28:15.352Z,100.00
2022-12-19T14:28:41.427Z,100.00
2022-12-19T14:31:16.804Z,100.00
2022-12-19T14:34:35.793Z,100.00
2022-12-19T14:36:39.804Z,100.00
2022-12-19T14:39:24.281Z,100.00
2022-12-19T14:42:20.257Z,100.00
2022-12-19T14:52:44.854Z,100.00
2022-12-19T14:53:10.843Z,100.00
2022-12-19T14:54:22.236Z,100.00
2022-12-19T14:54:52.612Z,100.00
2022-12-19T14:56:33.668Z,100.00
2022-12-19T14:59:20.261Z,100.00
2022-12-19T15:01:53.749Z,100.00
2022-12-19T15:04:47.705Z,100.00
2022-12-19T15:07:28.143Z,100.00
2022-12-19T15:11:07.819Z,100.00
2022-12-19T15:14:46.844Z,100.00
2022-12-19T15:16:07.598Z,100.00
2022-12-19T15:18:41.619Z,100.00
2022-12-19T15:21:13.936Z,100.00
2022-12-19T15:23:45.337Z,100.00
2022-12-19T15:26:17.189Z,100.00
2022-12-19T15:28:49.687Z,100.00
2022-12-19T15:31:32.992Z,100.00
2022-12-19T15:36:53.052Z,100.00
2022-12-19T15:39:23.194Z,100.00
2022-12-19T15:41:55.839Z,100.00
2022-12-19T15:44:32.853Z,100.00
2022-12-19T15:47:02.226Z,100.00
2022-12-19T15:49:31.591Z,100.00
2022-12-19T15:52:01.622Z,100.00
2022-12-19T15:57:27.283Z,100.00
2022-12-19T15:59:57.052Z,100.00
2022-12-19T16:02:42.696Z,100.00
2022-12-19T16:05:17.154Z,100.00
2022-12-19T16:07:48.464Z,100.00
2022-12-19T16:10:18.375Z,100.00
2022-12-19T16:12:50.681Z,100.00
2022-12-19T16:15:26.112Z,100.00
2022-12-19T16:17:55.732Z,100.00
2022-12-19T16:20:27.802Z,100.00
2022-12-19T16:22:57.933Z,100.00
2022-12-19T16:25:35.503Z,100.00
2022-12-19T16:28:06.383Z,100.00
2022-12-19T16:30:36.402Z,100.00
2022-12-19T16:33:04.924Z,100.00
2022-12-19T16:38:23.486Z,100.00
2022-12-19T16:40:53.309Z,100.00
2022-12-19T16:43:30.283Z,100.00
2022-12-19T16:46:01.558Z,100.00
2022-12-19T16:48:31.346Z,100.00
2022-12-19T16:51:00.379Z,100.00
2022-12-19T16:53:30.428Z,100.00
2022-12-19T16:56:00.877Z,100.00
2022-12-19T16:58:30.669Z,100.00
2022-12-19T17:00:59.259Z,100.00
2022-12-19T17:03:34.671Z,100.00
2022-12-19T17:06:03.486Z,100.00
2022-12-19T17:08:33.522Z,100.00
2022-12-19T17:11:02.002Z,100.00
2022-12-19T17:13:30.554Z,100.00
2022-12-19T17:15:59.575Z,100.00
2022-12-19T17:18:32.043Z,100.00
2022-12-19T17:21:00.575Z,100.00
2022-12-19T17:23:32.901Z,100.00
2022-12-19T17:26:02.125Z,100.00
2022-12-19T17:28:31.225Z,100.00
2022-12-19T17:31:04.237Z,100.00
2022-12-19T17:33:37.660Z,100.00
2022-12-19T17:36:08.223Z,100.00
2022-12-19T17:38:38.274Z,100.00
2022-12-19T17:41:07.130Z,100.00
2022-12-19T17:43:35.487Z,100.00
2022-12-19T17:46:04.165Z,100.00
2022-12-19T17:48:34.755Z,100.00
2022-12-19T17:51:04.244Z,100.00
2022-12-19T17:53:32.634Z,100.00
2022-12-19T17:56:02.450Z,100.00
2022-12-19T17:58:31.006Z,100.00
2022-12-19T18:00:59.516Z,100.00
2022-12-19T18:03:28.259Z,100.00
2022-12-19T18:05:57.581Z,100.00
2022-12-19T18:08:29.490Z,100.00
2022-12-19T18:11:00.045Z,100.00
2022-12-19T18:13:31.999Z,100.00
2022-12-19T18:16:03.440Z,100.00
2022-12-19T18:18:36.202Z,100.00
2022-12-19T18:21:05.539Z,100.00
2022-12-19T18:23:34.448Z,100.00
2022-12-19T18:26:03.104Z,100.00
2022-12-19T18:28:32.933Z,100.00
2022-12-19T18:31:04.641Z,100.00
2022-12-19T18:33:40.138Z,100.00
2022-12-19T18:36:12.973Z,100.00
2022-12-19T18:38:41.385Z,100.00
2022-12-19T18:41:12.644Z,100.00
2022-12-19T18:43:42.596Z,100.00
2022-12-19T18:46:14.841Z,100.00
2022-12-19T18:48:44.868Z,100.00
2022-12-19T18:51:17.079Z,100.00
2022-12-19T18:53:47.759Z,100.00
2022-12-19T18:56:16.903Z,100.00
2022-12-19T18:58:46.902Z,100.00
2022-12-19T19:01:18.591Z,100.00
2022-12-19T19:03:53.618Z,100.00
2022-12-19T19:06:25.690Z,100.00
2022-12-19T19:08:56.807Z,100.00
2022-12-19T19:11:42.422Z,100.00
2022-12-19T19:14:12.583Z,100.00
2022-12-19T19:16:41.243Z,100.00
2022-12-19T19:19:13.551Z,100.00
2022-12-19T19:21:42.715Z,100.00
2022-12-19T19:24:15.223Z,100.00
2022-12-19T19:26:43.748Z,100.00
2022-12-19T19:29:14.961Z,100.00
2022-12-19T19:31:47.314Z,100.00
2022-12-19T19:34:21.265Z,100.00
2022-12-19T19:36:53.931Z,100.00
2022-12-19T19:39:23.326Z,100.00
2022-12-19T19:41:51.760Z,100.00
2022-12-19T19:44:21.575Z,100.00
2022-12-19T19:46:50.026Z,100.00
2022-12-19T19:49:19.289Z,100.00
2022-12-19T19:51:47.830Z,100.00
2022-12-19T19:54:16.459Z,100.00
2022-12-19T19:56:44.934Z,100.00
2022-12-19T19:59:13.335Z,100.00
2022-12-19T20:01:43.255Z,100.00
2022-12-19T20:04:11.755Z,100.00
2022-12-19T20:06:40.193Z,100.00
2022-12-19T20:09:08.984Z,100.00
2022-12-19T20:11:37.511Z,100.00
2022-12-19T20:14:05.848Z,100.00
2022-12-19T20:16:34.293Z,100.00
2022-12-19T20:19:04.299Z,100.00
2022-12-19T20:21:33.421Z,100.00
2022-12-19T20:24:02.024Z,100.00
2022-12-19T20:26:30.491Z,100.00
2022-12-19T20:28:58.883Z,100.00
2022-12-19T20:31:27.539Z,100.00
2022-12-19T20:33:56.937Z,100.00
2022-12-19T20:36:27.300Z,100.00
2022-12-19T20:38:56.322Z,100.00
2022-12-19T20:41:24.784Z,100.00
2022-12-19T20:43:53.330Z,100.00
2022-12-19T20:46:23.081Z,100.00
2022-12-19T20:48:52.302Z,100.00
2022-12-19T20:51:22.647Z,100.00
2022-12-19T20:53:54.648Z,100.00
2022-12-19T20:56:26.281Z,100.00
2022-12-19T20:58:54.727Z,100.00
2022-12-19T21:01:25.923Z,100.00
2022-12-19T21:03:54.728Z,100.00
2022-12-19T21:06:25.440Z,100.00
2022-12-19T21:08:55.713Z,100.00
2022-12-19T21:11:26.184Z,100.00
2022-12-19T21:13:54.809Z,100.00
2022-12-19T21:16:24.689Z,100.00
2022-12-19T21:18:53.368Z,100.00
2022-12-19T21:21:24.708Z,100.00
2022-12-19T21:23:55.786Z,100.00
2022-12-19T21:26:26.091Z,100.00
2022-12-19T21:28:57.810Z,100.00
2022-12-19T21:31:28.859Z,100.00
2022-12-19T21:33:58.760Z,100.00
2022-12-19T21:36:28.614Z,100.00
2022-12-19T21:39:01.883Z,100.00
2022-12-19T21:41:31.186Z,100.00
2022-12-19T21:44:01.042Z,100.00
2022-12-19T21:46:33.070Z,100.00
2022-12-19T21:49:02.966Z,100.00
2022-12-19T21:51:32.900Z,100.00
2022-12-19T21:54:04.910Z,100.00
2022-12-19T21:56:35.330Z,100.00
2022-12-19T21:59:06.213Z,100.00
2022-12-19T22:01:35.319Z,100.00
2022-12-19T22:04:07.087Z,100.00
2022-12-19T22:06:37.635Z,100.00
2022-12-19T22:09:10.016Z,100.00
2022-12-19T22:11:38.745Z,100.00
2022-12-19T22:14:07.550Z,100.00
2022-12-19T22:16:37.002Z,100.00
2022-12-19T22:19:06.209Z,100.00
2022-12-19T22:21:35.565Z,100.00
2022-12-19T22:24:06.256Z,100.00
2022-12-19T22:26:35.608Z,100.00
2022-12-19T22:29:09.275Z,100.00
2022-12-19T22:31:38.978Z,100.00
2022-12-19T22:34:10.947Z,100.00
2022-12-19T22:36:41.987Z,100.00
2022-12-19T22:39:14.563Z,100.00
2022-12-19T22:41:44.211Z,100.00
2022-12-19T22:44:18.445Z,100.00
2022-12-19T22:46:47.004Z,100.00
2022-12-19T22:49:15.657Z,100.00
2022-12-19T22:51:44.253Z,100.00
2022-12-19T22:54:14.792Z,100.00
2022-12-19T22:56:43.726Z,100.00
2022-12-19T22:59:13.561Z,100.00
2022-12-19T23:01:44.054Z,100.00
2022-12-19T23:04:15.306Z,100.00
2022-12-19T23:06:44.140Z,100.00
2022-12-19T23:09:17.811Z,100.00
2022-12-19T23:11:49.706Z,100.00
2022-12-19T23:14:20.820Z,100.00
2022-12-19T23:16:50.063Z,100.00
2022-12-19T23:19:19.057Z,100.00
2022-12-19T23:21:47.575Z,100.00
2022-12-19T23:24:17.313Z,100.00
2022-12-19T23:26:45.927Z,100.00
2022-12-19T23:29:16.133Z,100.00
2022-12-19T23:31:47.474Z,100.00
2022-12-19T23:34:16.807Z,100.00
2022-12-19T23:37:10.117Z,100.00
2022-12-19T23:39:35.486Z,100.00
2022-12-19T23:42:04.154Z,100.00
2022-12-19T23:44:32.756Z,100.00
2022-12-19T23:47:03.753Z,100.00
2022-12-19T23:49:33.515Z,100.00
2022-12-19T23:52:02.116Z,100.00
2022-12-19T23:54:30.478Z,100.00
2022-12-19T23:57:00.361Z,100.00
2022-12-19T23:59:28.714Z,100.00
